• Join FlightAware (Why Join?)
  • Login
  • US Flag 
12:06AM EST


 

Airport Tracker/Info


-or-


 

Live Flight TrackerFlight Track Log ✈ ASQ4198 ✈ 24-Apr-2013 ✈ KCRP - KIAH

Flight Track Log - Related Links

Times and Time Zones

All times are in EDT time to prevent confusion due to time zone crossing. See the ASQ4198 flight status page for this flight to view local times or setup timezone preferences in your user account.

Time Position Orientation Groundspeed Altitude Reporting Facility
EDT Latitude Longitude Course Direction KTS MPH feet Rate Location/Type
04:03PM 27.7797 -97.5183 35° Northeast 157 181 600  Level Houston Center
04:04PM 27.8122 -97.5281 345° North 170 196 2,000 2,097 Climbing Houston Center
04:05PM 27.8528 -97.4939 37° Northeast 202 232 4,200 2,079 Climbing Houston Center
04:06PM 27.8984 -97.4328 344° North  Level FlightAware Approximate
04:06PM 27.9064 -97.4417 41° Northeast 237 273 6,400  Level Houston Center
04:07PM 27.9471 -97.3923 35° Northeast  Level FlightAware Approximate
04:07PM 27.9567 -97.3967 38° Northeast 241 277 8,600  Level Houston Center
04:08PM 27.9971 -97.3523 35° Northeast  Level FlightAware Approximate
04:08PM 28.0217 -97.3369 39° Northeast 248 285 11,000  Level Houston Center
04:09PM 28.0736 -97.2794 44° Northeast 257 296 13,200 1,452 Climbing Houston Center
04:10PM 28.1378 -97.2328 33° Northeast 275 316 14,000 677 Climbing Houston Center
04:11PM 28.2133 -97.1747 34° Northeast 322 371 14,600 629 Climbing Houston Center
04:12PM 28.2994 -97.1114 33° Northeast 362 417 15,300 871 Climbing Houston Center
04:13PM 28.3881 -97.0456 33° Northeast 380 437 16,400 774 Climbing Houston Center
04:14PM 28.4989 -96.9625 33° Northeast 397 457 16,900 240 Climbing Houston Center
04:15PM 28.5978 -96.8878 34° Northeast 422 486 16,900  Level Houston Center
04:16PM 28.6983 -96.8133 33° Northeast 430 495 16,900  Level Houston Center
04:17PM 28.7983 -96.7378 34° Northeast 432 497 16,900  Level Houston Center
04:18PM 28.8978 -96.6608 34° Northeast 433 498 16,900  Level Houston Center
04:19PM 29.0181 -96.5711 33° Northeast 433 498 16,900  Level Houston Center
04:20PM 29.1172 -96.4947 34° Northeast 434 499 16,900  Level Houston Center
04:21PM 29.2161 -96.4189 34° Northeast 433 498 16,900 -242 Level Houston Center
04:22PM 29.3292 -96.3344 33° Northeast 434 499 16,400 -1,135 Descending Houston Center
04:23PM 29.4117 -96.2703 34° Northeast 426 490 14,800 -2,127 Descending Houston Center
04:24PM 29.5025 -96.2028 33° Northeast 385 443 12,500 -1,366 Descending Houston Center
04:25PM 29.5669 -96.1211 48° Northeast 339 390 12,000 -468 Descending Houston Center
04:26PM 29.5797 -96.0997 56° Northeast 358 412 11,900  Descending Houston Center
04:26PM 29.6264 -96.0086 59° Northeast 355 409 12,000 -425 Climbing Houston Center
04:27PM 29.6744 -95.9094 61° Northeast 354 407 11,100 -934 Descending Houston Center
04:28PM 29.7264 -95.8097 59° Northeast 347 399 10,100 -564 Descending Houston Center
04:29PM 29.7711 -95.7203 60° Northeast 342 394 10,000 -81 Descending Houston Center
04:30PM 29.7789 -95.7039 61° Northeast 342 394 10,000 -1,273 Level Houston Center
04:30PM 29.8156 -95.6308 60° Northeast 294 338 8,600 -1,615 Descending Houston Center
04:31PM 29.8528 -95.5542 61° Northeast 294 338 7,200 -1,342 Descending Houston Center
04:32PM 29.8606 -95.5417 54° Northeast 294 338 6,900 -1,075 Descending Houston Center
04:32PM 29.8933 -95.4675 63° Northeast 274 315 6,000 -871 Descending Houston Center
04:33PM 29.8953 -95.4619 68° East 281 323 6,000  Level Houston Center
04:34PM 29.8953 -95.3756 90° East 286 329 6,000  Level Houston Center
04:34PM 29.8961 -95.3531 88° East 285 328 6,000  Level Houston Center
04:34PM 29.8961 -95.2936 90° East 284 327 6,000  Level Houston Center
04:35PM 29.8972 -95.2622 88° East 283 326 6,000 -179 Level Houston Center
04:36PM 29.8958 -95.1997 91° East 232 267 5,800 -581 Descending Houston Center
04:36PM 29.8969 -95.1817 86° East 252 290 5,400 -1,574 Descending Houston Center
04:37PM 29.8972 -95.1225 90° East 237 273 4,200 -1,355 Descending Houston Center
04:37PM 29.9014 -95.1075 72° East 236 272 4,000 -677 Descending Houston Center
04:38PM 29.9428 -95.0928 17° North 187 215 3,500 -581 Descending Houston Center
04:38PM 29.9528 -95.0911 North 198 228 3,400 -492 Descending Houston Center
04:39PM 29.9811 -95.1217 317° Northwest 191 220 3,000 -476 Descending Houston Center
04:39PM 29.9900 -95.1306 319° Northwest 188 216 2,900 -545 Descending Houston Center
04:40PM 29.9922 -95.1733 273° West 188 216 2,500 -677 Descending Houston Center
04:40PM 29.9933 -95.2019 273° West 188 216 2,200 -643 Descending Houston Center